Aviation Digital Data Service (ADDS)

Output produced by METARs form (0959 UTC 23 July 2019)
found at http://www.aviationweather.gov/metar/data/
 
METAR text: ZLLL 230900Z 36009G14MPS 330V040 9999 FEW033CB 23/12 Q1015 BECMG TL1040 09004MPS
Conditions at: ZLLL (LANZHOU , CN) observed 0900 UTC 23 July 2019
Temperature: 23.0°C (73°F)
Dewpoint: 12.0°C (54°F) [RH = 50%]
Pressure (altimeter): 29.97 inches Hg (1015.0 mb)
Winds: from the N (360 degrees) at 20 MPH (17 knots; 8.7 m/s)
gusting to 31 MPH (27 knots; 13.9 m/s)
Visibility: 6 or more miles (10+ km)
Ceiling: at least 12,000 feet AGL
Clouds: few clouds at 3300 feet AGL
Weather: no significant weather observed at this time

METAR text: ZLLL 230800Z 04005MPS 010V070 9999 FEW033CB SCT046 25/10 Q1014 BECMG TL0940 22004MPS
Conditions at: ZLLL (LANZHOU , CN) observed 0800 UTC 23 July 2019
Temperature: 25.0°C (77°F)
Dewpoint: 10.0°C (50°F) [RH = 39%]
Pressure (altimeter): 29.94 inches Hg (1014.0 mb)
Winds: from the NE (40 degrees) at 12 MPH (10 knots; 5.1 m/s)
Visibility: 6 or more miles (10+ km)
Ceiling: at least 12,000 feet AGL
Clouds: few clouds at 3300 feet AGL
scattered clouds at 4600 feet AGL
Weather: no significant weather observed at this time

METAR text: ZLLL 230700Z 09003MPS 040V130 9999 SCT023 27/09 Q1014 NOSIG
Conditions at: ZLLL (LANZHOU , CN) observed 0700 UTC 23 July 2019
Temperature: 27.0°C (81°F)
Dewpoint: 9.0°C (48°F) [RH = 32%]
Pressure (altimeter): 29.94 inches Hg (1014.0 mb)
Winds: from the E (90 degrees) at 7 MPH (6 knots; 3.1 m/s)
Visibility: 6 or more miles (10+ km)
Ceiling: at least 12,000 feet AGL
Clouds: scattered clouds at 2300 feet AGL
Weather: no significant weather observed at this time

METAR text: ZLLL 230600Z 27003MPS 150V320 9999 SCT023 28/09 Q1014 NOSIG
Conditions at: ZLLL (LANZHOU , CN) observed 0600 UTC 23 July 2019
Temperature: 28.0°C (82°F)
Dewpoint: 9.0°C (48°F) [RH = 30%]
Pressure (altimeter): 29.94 inches Hg (1014.0 mb)
Winds: from the W (270 degrees) at 7 MPH (6 knots; 3.1 m/s)
Visibility: 6 or more miles (10+ km)
Ceiling: at least 12,000 feet AGL
Clouds: scattered clouds at 2300 feet AGL
Weather: no significant weather observed at this time

METAR text: ZLLL 230500Z VRB02MPS 9999 SCT023 26/09 Q1015 NOSIG
Conditions at: ZLLL (LANZHOU , CN) observed 0500 UTC 23 July 2019
Temperature: 26.0°C (79°F)
Dewpoint: 9.0°C (48°F) [RH = 34%]
Pressure (altimeter): 29.97 inches Hg (1015.0 mb)
Winds: variable direction winds at 5 MPH (4 knots; 2.1 m/s)
Visibility: 6 or more miles (10+ km)
Ceiling: at least 12,000 feet AGL
Clouds: scattered clouds at 2300 feet AGL
Weather: no significant weather observed at this time

METAR text: ZLLL 230400Z 13003MPS 060V190 9999 FEW023 26/09 Q1015 NOSIG
Conditions at: ZLLL (LANZHOU , CN) observed 0400 UTC 23 July 2019
Temperature: 26.0°C (79°F)
Dewpoint: 9.0°C (48°F) [RH = 34%]
Pressure (altimeter): 29.97 inches Hg (1015.0 mb)
Winds: from the SE (130 degrees) at 7 MPH (6 knots; 3.1 m/s)
Visibility: 6 or more miles (10+ km)
Ceiling: at least 12,000 feet AGL
Clouds: few clouds at 2300 feet AGL
Weather: no significant weather observed at this time

METAR text: ZLLL 230300Z 18002MPS 100V240 CAVOK 25/08 Q1015 NOSIG
Conditions at: ZLLL (LANZHOU , CN) observed 0300 UTC 23 July 2019
Temperature: 25.0°C (77°F)
Dewpoint: 8.0°C (46°F) [RH = 34%]
Pressure (altimeter): 29.97 inches Hg (1015.0 mb)
Winds: from the S (180 degrees) at 5 MPH (4 knots; 2.1 m/s)
Visibility: 6 or more miles (10+ km)
Ceiling: ceiling and visibility are OK
Clouds: unknown
Weather: no significant weather observed at this time

METAR text: ZLLL 230200Z VRB02MPS CAVOK 24/09 Q1015 NOSIG
Conditions at: ZLLL (LANZHOU , CN) observed 0200 UTC 23 July 2019
Temperature: 24.0°C (75°F)
Dewpoint: 9.0°C (48°F) [RH = 38%]
Pressure (altimeter): 29.97 inches Hg (1015.0 mb)
Winds: variable direction winds at 5 MPH (4 knots; 2.1 m/s)
Visibility: 6 or more miles (10+ km)
Ceiling: ceiling and visibility are OK
Clouds: unknown
Weather: no significant weather observed at this time

METAR text: ZLLL 230100Z 07002MPS 010V150 CAVOK 22/08 Q1016 NOSIG
Conditions at: ZLLL (LANZHOU , CN) observed 0100 UTC 23 July 2019
Temperature: 22.0°C (72°F)
Dewpoint: 8.0°C (46°F) [RH = 41%]
Pressure (altimeter): 30.00 inches Hg (1016.0 mb)
Winds: from the ENE (70 degrees) at 5 MPH (4 knots; 2.1 m/s)
Visibility: 6 or more miles (10+ km)
Ceiling: ceiling and visibility are OK
Clouds: unknown
Weather: no significant weather observed at this time

METAR text: ZLLL 230000Z VRB01MPS CAVOK 18/10 Q1016 NOSIG
Conditions at: ZLLL (LANZHOU , CN) observed 0000 UTC 23 July 2019
Temperature: 18.0°C (64°F)
Dewpoint: 10.0°C (50°F) [RH = 59%]
Pressure (altimeter): 30.00 inches Hg (1016.0 mb)
Winds: variable direction winds at 2 MPH (2 knots; 1.0 m/s)
Visibility: 6 or more miles (10+ km)
Ceiling: ceiling and visibility are OK
Clouds: unknown
Weather: no significant weather observed at this time

METAR text: ZLLL 222300Z 35003MPS CAVOK 15/09 Q1015 NOSIG
Conditions at: ZLLL (LANZHOU , CN) observed 2300 UTC 22 July 2019
Temperature: 15.0°C (59°F)
Dewpoint: 9.0°C (48°F) [RH = 67%]
Pressure (altimeter): 29.97 inches Hg (1015.0 mb)
Winds: from the N (350 degrees) at 7 MPH (6 knots; 3.1 m/s)
Visibility: 6 or more miles (10+ km)
Ceiling: ceiling and visibility are OK
Clouds: unknown
Weather: no significant weather observed at this time

METAR text: ZLLL 222200Z 33002MPS CAVOK 13/08 Q1015 NOSIG
Conditions at: ZLLL (LANZHOU , CN) observed 2200 UTC 22 July 2019
Temperature: 13.0°C (55°F)
Dewpoint: 8.0°C (46°F) [RH = 72%]
Pressure (altimeter): 29.97 inches Hg (1015.0 mb)
Winds: from the NNW (330 degrees) at 5 MPH (4 knots; 2.1 m/s)
Visibility: 6 or more miles (10+ km)
Ceiling: ceiling and visibility are OK
Clouds: unknown
Weather: no significant weather observed at this time

METAR text: ZLLL 222100Z 32002MPS CAVOK 14/08 Q1015 NOSIG
Conditions at: ZLLL (LANZHOU , CN) observed 2100 UTC 22 July 2019
Temperature: 14.0°C (57°F)
Dewpoint: 8.0°C (46°F) [RH = 67%]
Pressure (altimeter): 29.97 inches Hg (1015.0 mb)
Winds: from the NW (320 degrees) at 5 MPH (4 knots; 2.1 m/s)
Visibility: 6 or more miles (10+ km)
Ceiling: ceiling and visibility are OK
Clouds: unknown
Weather: no significant weather observed at this time

METAR text: ZLLL 222000Z 33002MPS CAVOK 14/08 Q1015 NOSIG
Conditions at: ZLLL (LANZHOU , CN) observed 2000 UTC 22 July 2019
Temperature: 14.0°C (57°F)
Dewpoint: 8.0°C (46°F) [RH = 67%]
Pressure (altimeter): 29.97 inches Hg (1015.0 mb)
Winds: from the NNW (330 degrees) at 5 MPH (4 knots; 2.1 m/s)
Visibility: 6 or more miles (10+ km)
Ceiling: ceiling and visibility are OK
Clouds: unknown
Weather: no significant weather observed at this time

METAR text: ZLLL 221900Z 32002MPS CAVOK 16/08 Q1015 NOSIG
Conditions at: ZLLL (LANZHOU , CN) observed 1900 UTC 22 July 2019
Temperature: 16.0°C (61°F)
Dewpoint: 8.0°C (46°F) [RH = 59%]
Pressure (altimeter): 29.97 inches Hg (1015.0 mb)
Winds: from the NW (320 degrees) at 5 MPH (4 knots; 2.1 m/s)
Visibility: 6 or more miles (10+ km)
Ceiling: ceiling and visibility are OK
Clouds: unknown
Weather: no significant weather observed at this time

METAR text: ZLLL 221800Z 33002MPS CAVOK 14/08 Q1016 NOSIG
Conditions at: ZLLL (LANZHOU , CN) observed 1800 UTC 22 July 2019
Temperature: 14.0°C (57°F)
Dewpoint: 8.0°C (46°F) [RH = 67%]
Pressure (altimeter): 30.00 inches Hg (1016.0 mb)
Winds: from the NNW (330 degrees) at 5 MPH (4 knots; 2.1 m/s)
Visibility: 6 or more miles (10+ km)
Ceiling: ceiling and visibility are OK
Clouds: unknown
Weather: no significant weather observed at this time

METAR text: ZLLL 221700Z 33002MPS CAVOK 14/08 Q1015 NOSIG
Conditions at: ZLLL (LANZHOU , CN) observed 1700 UTC 22 July 2019
Temperature: 14.0°C (57°F)
Dewpoint: 8.0°C (46°F) [RH = 67%]
Pressure (altimeter): 29.97 inches Hg (1015.0 mb)
Winds: from the NNW (330 degrees) at 5 MPH (4 knots; 2.1 m/s)
Visibility: 6 or more miles (10+ km)
Ceiling: ceiling and visibility are OK
Clouds: unknown
Weather: no significant weather observed at this time

METAR text: ZLLL 221600Z 33002MPS CAVOK 15/08 Q1015 NOSIG
Conditions at: ZLLL (LANZHOU , CN) observed 1600 UTC 22 July 2019
Temperature: 15.0°C (59°F)
Dewpoint: 8.0°C (46°F) [RH = 63%]
Pressure (altimeter): 29.97 inches Hg (1015.0 mb)
Winds: from the NNW (330 degrees) at 5 MPH (4 knots; 2.1 m/s)
Visibility: 6 or more miles (10+ km)
Ceiling: ceiling and visibility are OK
Clouds: unknown
Weather: no significant weather observed at this time

METAR text: ZLLL 221500Z 33003MPS CAVOK 16/08 Q1016 NOSIG
Conditions at: ZLLL (LANZHOU , CN) observed 1500 UTC 22 July 2019
Temperature: 16.0°C (61°F)
Dewpoint: 8.0°C (46°F) [RH = 59%]
Pressure (altimeter): 30.00 inches Hg (1016.0 mb)
Winds: from the NNW (330 degrees) at 7 MPH (6 knots; 3.1 m/s)
Visibility: 6 or more miles (10+ km)
Ceiling: ceiling and visibility are OK
Clouds: unknown
Weather: no significant weather observed at this time

METAR text: ZLLL 221400Z 33002MPS CAVOK 17/08 Q1015 NOSIG
Conditions at: ZLLL (LANZHOU , CN) observed 1400 UTC 22 July 2019
Temperature: 17.0°C (63°F)
Dewpoint: 8.0°C (46°F) [RH = 55%]
Pressure (altimeter): 29.97 inches Hg (1015.0 mb)
Winds: from the NNW (330 degrees) at 5 MPH (4 knots; 2.1 m/s)
Visibility: 6 or more miles (10+ km)
Ceiling: ceiling and visibility are OK
Clouds: unknown
Weather: no significant weather observed at this time

METAR text: ZLLL 221300Z 04002MPS 9999 FEW046 21/07 Q1015 NOSIG
Conditions at: ZLLL (LANZHOU , CN) observed 1300 UTC 22 July 2019
Temperature: 21.0°C (70°F)
Dewpoint: 7.0°C (45°F) [RH = 40%]
Pressure (altimeter): 29.97 inches Hg (1015.0 mb)
Winds: from the NE (40 degrees) at 5 MPH (4 knots; 2.1 m/s)
Visibility: 6 or more miles (10+ km)
Ceiling: at least 12,000 feet AGL
Clouds: few clouds at 4600 feet AGL
Weather: no significant weather observed at this time

METAR text: ZLLL 221200Z 08003MPS 9999 FEW023 FEW033CB 24/06 Q1014 NOSIG
Conditions at: ZLLL (LANZHOU , CN) observed 1200 UTC 22 July 2019
Temperature: 24.0°C (75°F)
Dewpoint: 6.0°C (43°F) [RH = 31%]
Pressure (altimeter): 29.94 inches Hg (1014.0 mb)
Winds: from the E (80 degrees) at 7 MPH (6 knots; 3.1 m/s)
Visibility: 6 or more miles (10+ km)
Ceiling: at least 12,000 feet AGL
Clouds: few clouds at 2300 feet AGL
few clouds at 3300 feet AGL
Weather: no significant weather observed at this time

METAR text: ZLLL 221100Z 09003MPS 060V130 9999 SCT023 26/05 Q1013 NOSIG
Conditions at: ZLLL (LANZHOU , CN) observed 1100 UTC 22 July 2019
Temperature: 26.0°C (79°F)
Dewpoint: 5.0°C (41°F) [RH = 26%]
Pressure (altimeter): 29.91 inches Hg (1013.0 mb)
Winds: from the E (90 degrees) at 7 MPH (6 knots; 3.1 m/s)
Visibility: 6 or more miles (10+ km)
Ceiling: at least 12,000 feet AGL
Clouds: scattered clouds at 2300 feet AGL
Weather: no significant weather observed at this time

METAR text: ZLLL 221000Z 08003MPS 050V110 9999 SCT023 27/07 Q1013 NOSIG
Conditions at: ZLLL (LANZHOU , CN) observed 1000 UTC 22 July 2019
Temperature: 27.0°C (81°F)
Dewpoint: 7.0°C (45°F) [RH = 28%]
Pressure (altimeter): 29.91 inches Hg (1013.0 mb)
Winds: from the E (80 degrees) at 7 MPH (6 knots; 3.1 m/s)
Visibility: 6 or more miles (10+ km)
Ceiling: at least 12,000 feet AGL
Clouds: scattered clouds at 2300 feet AGL
Weather: no significant weather observed at this time

METAR text: ZLLL 220900Z 08003MPS 040V150 9999 BKN023 26/08 Q1013 NOSIG
Conditions at: ZLLL (LANZHOU , CN) observed 0900 UTC 22 July 2019
Temperature: 26.0°C (79°F)
Dewpoint: 8.0°C (46°F) [RH = 32%]
Pressure (altimeter): 29.91 inches Hg (1013.0 mb)
Winds: from the E (80 degrees) at 7 MPH (6 knots; 3.1 m/s)
Visibility: 6 or more miles (10+ km)
Ceiling: 2300 feet AGL
Clouds: broken clouds at 2300 feet AGL
Weather: no significant weather observed at this time

METAR text: ZLLL 220800Z 06004MPS 020V080 9999 BKN023 FEW033CB 26/09 Q1014 NOSIG
Conditions at: ZLLL (LANZHOU , CN) observed 0800 UTC 22 July 2019
Temperature: 26.0°C (79°F)
Dewpoint: 9.0°C (48°F) [RH = 34%]
Pressure (altimeter): 29.94 inches Hg (1014.0 mb)
Winds: from the ENE (60 degrees) at 9 MPH (8 knots; 4.1 m/s)
Visibility: 6 or more miles (10+ km)
Ceiling: 2300 feet AGL
Clouds: broken clouds at 2300 feet AGL
few clouds at 3300 feet AGL
Weather: no significant weather observed at this time

METAR text: ZLLL 220700Z VRB02MPS 9999 SCT023 FEW033TCU 26/09 Q1014 NOSIG
Conditions at: ZLLL (LANZHOU , CN) observed 0700 UTC 22 July 2019
Temperature: 26.0°C (79°F)
Dewpoint: 9.0°C (48°F) [RH = 34%]
Pressure (altimeter): 29.94 inches Hg (1014.0 mb)
Winds: variable direction winds at 5 MPH (4 knots; 2.1 m/s)
Visibility: 6 or more miles (10+ km)
Ceiling: at least 12,000 feet AGL
Clouds: scattered clouds at 2300 feet AGL
few clouds at 3300 feet AGL
Weather: no significant weather observed at this time

METAR text: ZLLL 220600Z VRB01MPS 9999 SCT023 FEW033TCU 27/09 Q1014 NOSIG
Conditions at: ZLLL (LANZHOU , CN) observed 0600 UTC 22 July 2019
Temperature: 27.0°C (81°F)
Dewpoint: 9.0°C (48°F) [RH = 32%]
Pressure (altimeter): 29.94 inches Hg (1014.0 mb)
Winds: variable direction winds at 2 MPH (2 knots; 1.0 m/s)
Visibility: 6 or more miles (10+ km)
Ceiling: at least 12,000 feet AGL
Clouds: scattered clouds at 2300 feet AGL
few clouds at 3300 feet AGL
Weather: no significant weather observed at this time

METAR text: ZLLL 220500Z VRB02G07MPS 9999 SCT023 25/09 Q1015 NOSIG
Conditions at: ZLLL (LANZHOU , CN) observed 0500 UTC 22 July 2019
Temperature: 25.0°C (77°F)
Dewpoint: 9.0°C (48°F) [RH = 36%]
Pressure (altimeter): 29.97 inches Hg (1015.0 mb)
Winds: variable direction winds at 5 MPH (4 knots; 2.1 m/s)
gusting to 16 MPH (14 knots; 7.2 m/s)
Visibility: 6 or more miles (10+ km)
Ceiling: at least 12,000 feet AGL
Clouds: scattered clouds at 2300 feet AGL
Weather: no significant weather observed at this time

METAR text: ZLLL 220400Z 17004MPS 060V210 9999 FEW023 24/10 Q1016 NOSIG
Conditions at: ZLLL (LANZHOU , CN) observed 0400 UTC 22 July 2019
Temperature: 24.0°C (75°F)
Dewpoint: 10.0°C (50°F) [RH = 41%]
Pressure (altimeter): 30.00 inches Hg (1016.0 mb)
Winds: from the S (170 degrees) at 9 MPH (8 knots; 4.1 m/s)
Visibility: 6 or more miles (10+ km)
Ceiling: at least 12,000 feet AGL
Clouds: few clouds at 2300 feet AGL
Weather: no significant weather observed at this time

METAR text: ZLLL 220300Z VRB03MPS 9999 FEW023 22/11 Q1016 NOSIG
Conditions at: ZLLL (LANZHOU , CN) observed 0300 UTC 22 July 2019
Temperature: 22.0°C (72°F)
Dewpoint: 11.0°C (52°F) [RH = 50%]
Pressure (altimeter): 30.00 inches Hg (1016.0 mb)
Winds: variable direction winds at 7 MPH (6 knots; 3.1 m/s)
Visibility: 6 or more miles (10+ km)
Ceiling: at least 12,000 feet AGL
Clouds: few clouds at 2300 feet AGL
Weather: no significant weather observed at this time

METAR text: ZLLL 220200Z 19003MPS 160V250 CAVOK 21/12 Q1017 NOSIG
Conditions at: ZLLL (LANZHOU , CN) observed 0200 UTC 22 July 2019
Temperature: 21.0°C (70°F)
Dewpoint: 12.0°C (54°F) [RH = 56%]
Pressure (altimeter): 30.03 inches Hg (1017.0 mb)
Winds: from the S (190 degrees) at 7 MPH (6 knots; 3.1 m/s)
Visibility: 6 or more miles (10+ km)
Ceiling: ceiling and visibility are OK
Clouds: unknown
Weather: no significant weather observed at this time

METAR text: ZLLL 220100Z 25003MPS 190V290 CAVOK 21/11 Q1017 NOSIG
Conditions at: ZLLL (LANZHOU , CN) observed 0100 UTC 22 July 2019
Temperature: 21.0°C (70°F)
Dewpoint: 11.0°C (52°F) [RH = 53%]
Pressure (altimeter): 30.03 inches Hg (1017.0 mb)
Winds: from the WSW (250 degrees) at 7 MPH (6 knots; 3.1 m/s)
Visibility: 6 or more miles (10+ km)
Ceiling: ceiling and visibility are OK
Clouds: unknown
Weather: no significant weather observed at this time

METAR text: ZLLL 220000Z 24002MPS 200V260 CAVOK 18/11 Q1017 NOSIG
Conditions at: ZLLL (LANZHOU , CN) observed 0000 UTC 22 July 2019
Temperature: 18.0°C (64°F)
Dewpoint: 11.0°C (52°F) [RH = 64%]
Pressure (altimeter): 30.03 inches Hg (1017.0 mb)
Winds: from the WSW (240 degrees) at 5 MPH (4 knots; 2.1 m/s)
Visibility: 6 or more miles (10+ km)
Ceiling: ceiling and visibility are OK
Clouds: unknown
Weather: no significant weather observed at this time

METAR text: ZLLL 212300Z VRB01MPS CAVOK 16/12 Q1016 NOSIG
Conditions at: ZLLL (LANZHOU , CN) observed 2300 UTC 21 July 2019
Temperature: 16.0°C (61°F)
Dewpoint: 12.0°C (54°F) [RH = 77%]
Pressure (altimeter): 30.00 inches Hg (1016.0 mb)
Winds: variable direction winds at 2 MPH (2 knots; 1.0 m/s)
Visibility: 6 or more miles (10+ km)
Ceiling: ceiling and visibility are OK
Clouds: unknown
Weather: no significant weather observed at this time

METAR text: ZLLL 212200Z 21001MPS CAVOK 15/12 Q1016 NOSIG
Conditions at: ZLLL (LANZHOU , CN) observed 2200 UTC 21 July 2019
Temperature: 15.0°C (59°F)
Dewpoint: 12.0°C (54°F) [RH = 82%]
Pressure (altimeter): 30.00 inches Hg (1016.0 mb)
Winds: from the SSW (210 degrees) at 2 MPH (2 knots; 1.0 m/s)
Visibility: 6 or more miles (10+ km)
Ceiling: ceiling and visibility are OK
Clouds: unknown
Weather: no significant weather observed at this time

Forecast for: ZLLL (LANZHOU , CN)
Text: TAF ZLLL 230300Z 2306/2406 17003MPS 6000 SCT023 TX28/2309Z TN15/2322Z
Forecast period: 0600 UTC 23 July 2019 to 0600 UTC 24 July 2019
Forecast type: FROM: standard forecast or significant change
Winds: from the S (170 degrees) at 7 MPH (6 knots; 3.1 m/s)
Visibility: 4 miles (6 km)
Ceiling: at least 12,000 feet AGL
Clouds: scattered clouds at 2300 feet AGL
Weather: no significant weather forecast for this period
Text: TEMPO 2306/2312 -SHRA SCT023 FEW033CB
Forecast period: 0600 to 1200 UTC 23 July 2019
Forecast type: TEMPORARY: The following changes expected for less than half the time period
Visibility: missing
Ceiling: at least 12,000 feet AGL
Clouds: scattered clouds at 2300 feet AGL
few clouds at 3300 feet AGL
Weather: -SHRA  (light rain showers)